createdAt,value
2019-02-15T00:01:24.712Z,18.87
2019-02-15T00:03:58.042Z,20.70
2019-02-15T00:06:31.333Z,20.43
2019-02-15T00:09:05.591Z,21.50
2019-02-15T00:11:38.942Z,19.97
2019-02-15T00:14:12.232Z,21.47
2019-02-15T00:16:45.552Z,22.70
2019-02-15T00:19:29.473Z,22.87
2019-02-15T00:22:02.801Z,22.30
2019-02-15T00:24:36.094Z,22.77
2019-02-15T00:27:09.418Z,23.40
2019-02-15T00:29:42.748Z,24.03
2019-02-15T00:32:16.116Z,24.80
2019-02-15T00:34:49.423Z,24.10
2019-02-15T00:37:22.744Z,23.37
2019-02-15T00:39:56.037Z,24.53
2019-02-15T00:42:29.335Z,24.33
2019-02-15T00:45:02.640Z,21.97
2019-02-15T00:47:46.583Z,21.30
2019-02-15T00:50:39.585Z,21.43
2019-02-15T00:53:14.522Z,22.43
2019-02-15T00:55:52.127Z,23.07
2019-02-15T00:58:29.580Z,23.33
2019-02-15T01:01:04.520Z,23.40
2019-02-15T01:03:51.416Z,25.47
2019-02-15T01:06:29.072Z,23.23
2019-02-15T01:09:12.767Z,25.27
2019-02-15T01:11:47.693Z,24.80
2019-02-15T01:14:21.030Z,25.53
2019-02-15T01:16:54.340Z,24.70
2019-02-15T01:19:27.665Z,24.17
2019-02-15T01:22:00.965Z,24.67
2019-02-15T01:24:34.285Z,23.23
2019-02-15T01:27:09.218Z,23.13
2019-02-15T01:29:56.235Z,22.97
2019-02-15T01:32:31.154Z,23.00
2019-02-15T01:35:15.431Z,24.07
2019-02-15T01:37:59.318Z,22.17
2019-02-15T01:40:34.272Z,22.50
2019-02-15T01:43:11.640Z,21.93
2019-02-15T01:45:46.602Z,22.13
2019-02-15T01:48:19.884Z,22.63
2019-02-15T01:50:53.272Z,22.13
2019-02-15T01:53:26.542Z,24.17
2019-02-15T01:55:59.855Z,25.80
2019-02-15T01:58:33.138Z,25.93
2019-02-15T02:01:07.309Z,25.43
2019-02-15T02:03:40.585Z,25.27
2019-02-15T02:06:13.881Z,23.70
2019-02-15T02:08:47.229Z,23.87
2019-02-15T02:11:20.533Z,22.90
2019-02-15T02:13:53.822Z,23.97
2019-02-15T02:16:27.114Z,25.47
2019-02-15T02:19:00.403Z,24.40
2019-02-15T02:21:33.697Z,23.07
2019-02-15T02:24:06.991Z,23.83
2019-02-15T02:26:40.356Z,24.20
2019-02-15T02:29:13.631Z,22.20
2019-02-15T02:31:46.946Z,23.43
2019-02-15T02:34:20.214Z,21.53
2019-02-15T02:36:54.679Z,23.50
2019-02-15T02:39:27.949Z,24.40
2019-02-15T02:42:01.313Z,23.00
2019-02-15T02:44:34.616Z,22.57
2019-02-15T02:47:07.930Z,25.77
2019-02-15T02:49:41.215Z,25.53
2019-02-15T02:52:14.521Z,26.13
2019-02-15T02:54:47.800Z,23.93
2019-02-15T02:57:21.086Z,24.30
2019-02-15T02:59:54.362Z,24.33
2019-02-15T03:02:27.662Z,21.73
2019-02-15T03:05:00.954Z,22.77
2019-02-15T03:07:34.252Z,21.97
2019-02-15T03:10:07.800Z,21.47
2019-02-15T03:12:41.111Z,22.50
2019-02-15T03:15:14.392Z,22.37
2019-02-15T03:17:49.268Z,23.23
2019-02-15T03:20:30.860Z,22.37
2019-02-15T03:22:57.563Z,22.00
2019-02-15T03:25:30.830Z,23.47
2019-02-15T03:28:04.123Z,25.50
2019-02-15T03:30:37.410Z,25.37
2019-02-15T03:33:10.710Z,25.57
2019-02-15T03:35:45.691Z,24.23
2019-02-15T03:38:20.642Z,21.73
2019-02-15T03:40:55.199Z,21.77
2019-02-15T03:43:28.496Z,23.00
2019-02-15T03:46:02.306Z,23.00
2019-02-15T03:48:35.627Z,21.97
2019-02-15T03:51:08.902Z,22.30
2019-02-15T03:53:42.243Z,22.07
2019-02-15T03:56:15.539Z,23.60
2019-02-15T03:58:48.826Z,24.77
2019-02-15T04:01:22.744Z,26.10
2019-02-15T04:03:56.107Z,24.07
2019-02-15T04:06:29.402Z,22.83
2019-02-15T04:09:02.754Z,22.07
2019-02-15T04:11:36.048Z,23.40
2019-02-15T04:14:09.351Z,23.40
2019-02-15T04:16:43.290Z,21.50
2019-02-15T04:19:16.587Z,22.37
2019-02-15T04:21:49.884Z,22.40
2019-02-15T04:24:24.145Z,22.40
2019-02-15T04:26:57.441Z,21.60
2019-02-15T04:29:30.772Z,20.43
2019-02-15T04:32:04.063Z,20.20
2019-02-15T04:34:37.379Z,20.23
2019-02-15T04:37:10.687Z,21.30
2019-02-15T04:39:43.975Z,21.57
2019-02-15T04:42:17.264Z,20.93
2019-02-15T04:44:50.548Z,22.10
2019-02-15T04:47:23.675Z,20.33
2019-02-15T04:49:56.949Z,20.30
2019-02-15T04:52:30.258Z,21.60
2019-02-15T04:55:04.079Z,21.87
2019-02-15T04:57:37.382Z,21.03
2019-02-15T05:00:10.835Z,21.43
2019-02-15T05:02:44.203Z,21.30
2019-02-15T05:05:17.473Z,19.87
2019-02-15T05:07:50.792Z,21.67
2019-02-15T05:10:24.046Z,22.03
2019-02-15T05:12:57.365Z,22.33
2019-02-15T05:15:30.636Z,21.77
2019-02-15T05:18:03.954Z,21.87
2019-02-15T05:20:37.214Z,22.03
2019-02-15T05:23:10.517Z,22.67
2019-02-15T05:25:43.878Z,23.17
2019-02-15T05:28:17.157Z,22.67
2019-02-15T05:30:50.440Z,23.33
2019-02-15T05:33:23.756Z,22.57
2019-02-15T05:35:57.054Z,22.30
2019-02-15T05:38:30.357Z,23.60
2019-02-15T05:41:03.668Z,24.17
2019-02-15T05:43:36.986Z,22.13
2019-02-15T05:46:10.337Z,20.93
2019-02-15T05:48:43.654Z,21.63
2019-02-15T05:51:16.939Z,21.67
2019-02-15T05:53:50.250Z,23.37
2019-02-15T05:56:23.559Z,24.77
2019-02-15T05:58:56.869Z,22.03
2019-02-15T06:01:30.208Z,21.60
2019-02-15T06:04:03.521Z,22.47
2019-02-15T06:06:36.779Z,20.97
2019-02-15T06:09:10.083Z,22.60
2019-02-15T06:11:44.997Z,21.47
2019-02-15T06:14:18.335Z,22.23
2019-02-15T06:16:51.618Z,21.70
2019-02-15T06:19:25.522Z,21.37
2019-02-15T06:21:58.770Z,23.50
2019-02-15T06:24:32.079Z,21.83
2019-02-15T06:27:05.385Z,21.90
2019-02-15T06:29:38.678Z,22.20
2019-02-15T06:32:11.968Z,23.80
2019-02-15T06:34:45.265Z,24.73
2019-02-15T06:37:18.550Z,23.47
2019-02-15T06:39:51.869Z,22.10
2019-02-15T06:42:25.135Z,23.63
2019-02-15T06:44:58.451Z,21.17
2019-02-15T06:47:32.325Z,20.80
2019-02-15T06:50:07.420Z,18.87
2019-02-15T06:52:40.688Z,24.77
2019-02-15T06:55:13.998Z,24.23
2019-02-15T06:57:47.303Z,23.23
2019-02-15T07:00:30.751Z,20.43
2019-02-15T07:03:05.669Z,22.07
2019-02-15T07:05:38.993Z,23.87
2019-02-15T07:08:12.112Z,22.13
2019-02-15T07:10:45.408Z,21.10
2019-02-15T07:13:18.699Z,21.50
2019-02-15T07:15:52.006Z,23.80
2019-02-15T07:18:25.276Z,23.57
2019-02-15T07:20:58.577Z,22.40
2019-02-15T07:23:33.509Z,26.03
2019-02-15T07:26:06.812Z,25.43
2019-02-15T07:28:40.115Z,27.03
2019-02-15T07:31:13.429Z,28.00
2019-02-15T07:33:46.710Z,30.23
2019-02-15T07:36:20.007Z,24.73
2019-02-15T07:38:53.302Z,22.80
2019-02-15T07:41:26.591Z,25.47
2019-02-15T07:43:59.894Z,29.47
2019-02-15T07:46:33.173Z,22.43
2019-02-15T07:49:06.482Z,23.17
2019-02-15T07:51:39.763Z,25.17
2019-02-15T07:54:13.062Z,19.30
2019-02-15T07:56:47.393Z,17.43
2019-02-15T07:59:20.689Z,16.43
2019-02-15T08:02:01.668Z,16.30
2019-02-15T08:04:29.864Z,16.00
2019-02-15T08:07:03.229Z,16.67
2019-02-15T08:09:36.518Z,16.33
2019-02-15T08:12:09.784Z,16.00
2019-02-15T08:14:43.084Z,16.13
2019-02-15T08:17:16.367Z,15.20
2019-02-15T08:19:49.650Z,15.77
2019-02-15T08:22:23.514Z,14.87
2019-02-15T08:24:56.883Z,15.70
2019-02-15T08:27:31.474Z,16.53
2019-02-15T08:30:07.382Z,14.60
2019-02-15T08:32:40.738Z,16.27
2019-02-15T08:35:14.032Z,15.03
2019-02-15T08:37:47.333Z,13.60
2019-02-15T08:40:20.635Z,12.73
2019-02-15T08:42:55.966Z,13.57
2019-02-15T08:45:29.383Z,14.00
2019-02-15T08:48:02.502Z,13.90
2019-02-15T08:50:35.798Z,13.30
2019-02-15T08:53:09.100Z,13.87
2019-02-15T08:55:42.470Z,13.37
2019-02-15T08:58:15.828Z,13.97
2019-02-15T09:00:49.144Z,13.77
2019-02-15T09:03:23.477Z,13.30
2019-02-15T09:05:56.773Z,13.17
2019-02-15T09:08:30.216Z,13.23
2019-02-15T09:11:03.536Z,13.83
2019-02-15T09:13:36.838Z,12.93
2019-02-15T09:16:10.740Z,13.87
2019-02-15T09:18:44.086Z,14.17
2019-02-15T09:21:17.396Z,14.20
2019-02-15T09:23:52.216Z,13.37
2019-02-15T09:26:25.538Z,13.87
2019-02-15T09:29:00.460Z,14.80
2019-02-15T09:31:33.770Z,14.60
2019-02-15T09:34:07.057Z,15.07
2019-02-15T09:36:41.415Z,15.40
2019-02-15T09:39:14.725Z,15.07
2019-02-15T09:41:48.091Z,15.53
2019-02-15T09:44:21.386Z,13.77
2019-02-15T09:46:54.754Z,15.13
2019-02-15T09:49:28.057Z,15.17
2019-02-15T09:52:01.342Z,13.07
2019-02-15T09:54:34.628Z,13.97
2019-02-15T09:57:07.930Z,13.23
2019-02-15T09:59:41.200Z,14.50
2019-02-15T10:02:14.526Z,12.67
2019-02-15T10:04:48.092Z,12.90
2019-02-15T10:07:21.474Z,13.73
2019-02-15T10:09:54.792Z,12.47
2019-02-15T10:12:28.119Z,13.63
2019-02-15T10:15:01.413Z,13.07
2019-02-15T10:17:34.741Z,12.67
2019-02-15T10:20:09.577Z,11.87
2019-02-15T10:22:42.911Z,12.40
2019-02-15T10:25:17.710Z,12.50
2019-02-15T10:27:51.046Z,11.90
2019-02-15T10:30:24.447Z,11.70
2019-02-15T10:32:57.744Z,11.73
2019-02-15T10:35:31.037Z,11.87
2019-02-15T10:38:04.457Z,11.07
2019-02-15T10:40:37.768Z,10.80
2019-02-15T10:43:11.074Z,11.37
2019-02-15T10:45:44.457Z,11.70
2019-02-15T10:48:18.956Z,11.47
2019-02-15T10:50:52.286Z,11.07
2019-02-15T10:53:25.577Z,11.90
2019-02-15T10:55:58.899Z,10.80
2019-02-15T10:58:32.195Z,9.87
2019-02-15T11:01:05.501Z,10.87
2019-02-15T11:03:38.857Z,10.37
2019-02-15T11:06:12.160Z,9.60
2019-02-15T11:08:45.439Z,11.00
2019-02-15T11:11:18.766Z,8.83
2019-02-15T11:13:52.083Z,11.03
2019-02-15T11:16:25.391Z,9.87
2019-02-15T11:18:58.670Z,10.30
2019-02-15T11:21:31.986Z,9.20
2019-02-15T11:24:05.379Z,9.30
2019-02-15T11:26:38.688Z,9.07
2019-02-15T11:29:11.999Z,8.70
2019-02-15T11:31:45.288Z,9.27
2019-02-15T11:34:18.559Z,8.57
2019-02-15T11:36:51.867Z,9.60
2019-02-15T11:39:25.156Z,9.43
2019-02-15T11:41:58.552Z,9.10
2019-02-15T11:44:31.827Z,8.95
2019-02-15T11:47:05.214Z,9.43
2019-02-15T11:49:38.478Z,9.25
2019-02-15T11:52:11.819Z,9.18
2019-02-15T11:54:45.102Z,9.15
2019-02-15T11:57:18.468Z,8.68
2019-02-15T11:59:51.775Z,8.70
2019-02-15T12:02:25.084Z,8.50
2019-02-15T12:04:58.381Z,8.43
2019-02-15T12:07:31.673Z,8.60
2019-02-15T12:10:08.052Z,8.33
2019-02-15T12:12:41.458Z,8.73
2019-02-15T12:15:14.752Z,9.00
2019-02-15T12:17:48.152Z,9.20
2019-02-15T12:20:21.445Z,9.03
2019-02-15T12:22:54.829Z,8.08
2019-02-15T12:25:28.122Z,9.23
2019-02-15T12:28:01.449Z,10.23
2019-02-15T12:30:34.874Z,8.48
2019-02-15T12:33:08.172Z,8.88
2019-02-15T12:35:41.491Z,8.63
2019-02-15T12:38:14.802Z,8.65
2019-02-15T12:40:48.096Z,8.85
2019-02-15T12:43:21.408Z,8.45
2019-02-15T12:45:54.714Z,9.13
2019-02-15T12:48:28.031Z,8.85
2019-02-15T12:51:01.370Z,8.63
2019-02-15T12:53:34.621Z,8.95
2019-02-15T12:56:07.923Z,8.25
2019-02-15T12:58:41.234Z,8.63
2019-02-15T13:01:14.533Z,9.13
2019-02-15T13:03:48.098Z,8.73
2019-02-15T13:06:28.357Z,9.03
2019-02-15T13:08:56.366Z,9.18
2019-02-15T13:11:29.655Z,8.63
2019-02-15T13:14:02.989Z,8.50
2019-02-15T13:16:36.278Z,8.85
2019-02-15T13:19:09.589Z,8.35
2019-02-15T13:21:42.935Z,9.20
2019-02-15T13:24:16.305Z,8.50
2019-02-15T13:26:49.683Z,9.30
2019-02-15T13:29:23.010Z,9.50
2019-02-15T13:31:56.361Z,10.25
2019-02-15T13:34:30.155Z,9.60
2019-02-15T13:37:03.503Z,8.73
2019-02-15T13:39:36.804Z,9.55
2019-02-15T13:42:10.103Z,9.98
2019-02-15T13:44:43.410Z,10.20
2019-02-15T13:47:16.700Z,10.23
2019-02-15T13:49:50.041Z,9.95
2019-02-15T13:52:23.348Z,10.38
2019-02-15T13:54:56.640Z,10.50
2019-02-15T13:57:30.039Z,9.98
2019-02-15T14:00:03.502Z,10.70
2019-02-15T14:02:36.815Z,11.03
2019-02-15T14:05:11.548Z,10.80
2019-02-15T14:07:44.905Z,10.55
2019-02-15T14:10:18.210Z,11.40
2019-02-15T14:12:51.534Z,11.10
2019-02-15T14:15:24.923Z,10.38
2019-02-15T14:17:59.378Z,10.98
2019-02-15T14:20:32.634Z,11.08
2019-02-15T14:23:06.028Z,10.20
2019-02-15T14:25:39.334Z,10.95
2019-02-15T14:28:12.630Z,10.08
2019-02-15T14:30:45.926Z,10.82
2019-02-15T14:33:19.226Z,10.32
2019-02-15T14:35:52.545Z,10.72
2019-02-15T14:38:25.893Z,10.70
2019-02-15T14:40:59.184Z,10.75
2019-02-15T14:43:32.487Z,10.63
2019-02-15T14:46:05.779Z,11.18
2019-02-15T14:48:39.106Z,10.75
2019-02-15T14:51:12.430Z,10.80
2019-02-15T14:53:45.756Z,12.03
2019-02-15T14:56:19.054Z,10.05
2019-02-15T14:58:52.398Z,10.48
2019-02-15T15:01:25.677Z,10.85
2019-02-15T15:03:59.003Z,11.73
2019-02-15T15:06:32.322Z,10.90
2019-02-15T15:09:06.392Z,10.15
2019-02-15T15:11:39.712Z,10.23
2019-02-15T15:14:13.059Z,10.35
2019-02-15T15:16:46.381Z,9.98
2019-02-15T15:19:19.695Z,10.03
2019-02-15T15:21:53.022Z,10.30
2019-02-15T15:24:28.391Z,10.10
2019-02-15T15:27:01.358Z,10.48
2019-02-15T15:29:34.731Z,9.88
2019-02-15T15:32:08.074Z,10.82
2019-02-15T15:34:41.472Z,10.10
2019-02-15T15:37:16.765Z,10.50
2019-02-15T15:39:49.770Z,10.47
2019-02-15T15:42:23.076Z,10.37
2019-02-15T15:44:56.393Z,10.90
2019-02-15T15:47:29.679Z,11.57
2019-02-15T15:50:03.007Z,11.07
2019-02-15T15:52:36.301Z,10.77
2019-02-15T15:55:11.779Z,10.37
2019-02-15T15:57:45.118Z,10.60
2019-02-15T16:00:18.458Z,10.33
2019-02-15T16:02:51.767Z,10.93
2019-02-15T16:05:25.091Z,11.60
2019-02-15T16:07:59.471Z,10.70
2019-02-15T16:10:32.793Z,11.47
2019-02-15T16:13:06.107Z,11.40
2019-02-15T16:15:39.414Z,12.23
2019-02-15T16:18:12.727Z,12.70
2019-02-15T16:20:46.038Z,12.80
2019-02-15T16:23:19.354Z,11.50
2019-02-15T16:25:52.689Z,12.83
2019-02-15T16:28:26.076Z,11.40
2019-02-15T16:30:59.493Z,11.57
2019-02-15T16:33:32.799Z,10.80
2019-02-15T16:36:06.140Z,11.23
2019-02-15T16:38:39.406Z,12.13
2019-02-15T16:41:12.719Z,12.33
2019-02-15T16:43:46.000Z,11.40
2019-02-15T16:46:19.312Z,11.53
2019-02-15T16:48:52.594Z,11.70
2019-02-15T16:51:26.009Z,12.73
2019-02-15T16:53:59.303Z,12.30
2019-02-15T16:56:32.642Z,12.20
2019-02-15T16:59:05.946Z,13.00
2019-02-15T17:01:40.716Z,12.53
2019-02-15T17:04:14.020Z,11.00
2019-02-15T17:06:48.156Z,11.83
2019-02-15T17:09:22.041Z,10.13
2019-02-15T17:11:55.379Z,12.40
2019-02-15T17:14:28.734Z,13.93
2019-02-15T17:17:02.105Z,11.43
2019-02-15T17:19:35.433Z,11.73
2019-02-15T17:22:08.755Z,11.27
2019-02-15T17:24:42.075Z,10.73
2019-02-15T17:27:15.493Z,11.97
2019-02-15T17:29:48.812Z,11.97
2019-02-15T17:32:22.083Z,12.10
2019-02-15T17:34:55.444Z,13.47
2019-02-15T17:37:28.745Z,11.00
2019-02-15T17:40:02.052Z,12.37
2019-02-15T17:42:35.360Z,11.10
2019-02-15T17:45:10.719Z,11.10
2019-02-15T17:47:44.071Z,11.17
2019-02-15T17:50:17.386Z,13.10
2019-02-15T17:52:50.699Z,13.17
2019-02-15T17:55:24.084Z,11.37
2019-02-15T17:57:57.404Z,11.27
2019-02-15T18:00:31.821Z,11.77
2019-02-15T18:03:05.117Z,11.43
2019-02-15T18:05:38.459Z,11.70
2019-02-15T18:08:11.742Z,11.20
2019-02-15T18:10:45.055Z,12.07
2019-02-15T18:13:18.437Z,11.30
2019-02-15T18:15:51.765Z,11.20
2019-02-15T18:18:25.122Z,10.63
2019-02-15T18:20:58.462Z,11.77
2019-02-15T18:23:31.781Z,10.17
2019-02-15T18:26:05.104Z,12.47
2019-02-15T18:28:38.411Z,13.30
2019-02-15T18:31:11.736Z,12.87
2019-02-15T18:33:45.247Z,16.33
2019-02-15T18:36:18.559Z,13.40
2019-02-15T18:38:51.868Z,17.43
2019-02-15T18:41:25.227Z,16.20
2019-02-15T18:43:58.555Z,14.53
2019-02-15T18:46:31.902Z,15.27
2019-02-15T18:49:05.185Z,12.80
2019-02-15T18:51:38.499Z,16.27
2019-02-15T18:54:11.819Z,17.57
2019-02-15T18:56:45.149Z,14.43
2019-02-15T18:59:18.463Z,13.23
2019-02-15T19:01:51.766Z,12.23
2019-02-15T19:04:25.102Z,14.60
2019-02-15T19:06:58.456Z,16.13
2019-02-15T19:09:31.857Z,16.30
2019-02-15T19:12:05.171Z,13.70
2019-02-15T19:14:38.492Z,13.10
2019-02-15T19:17:11.886Z,10.93
2019-02-15T19:19:45.261Z,15.53
2019-02-15T19:22:18.651Z,16.00
2019-02-15T19:24:51.949Z,12.47
2019-02-15T19:27:25.320Z,12.90
2019-02-15T19:29:58.610Z,11.73
2019-02-15T19:32:31.981Z,10.87
2019-02-15T19:35:06.723Z,11.43
2019-02-15T19:37:40.067Z,11.97
2019-02-15T19:40:16.223Z,13.50
2019-02-15T19:42:52.269Z,12.27
2019-02-15T19:45:25.595Z,12.23
2019-02-15T19:47:58.911Z,15.37
2019-02-15T19:50:32.235Z,13.90
2019-02-15T19:53:05.537Z,13.10
2019-02-15T19:55:38.875Z,13.20
2019-02-15T19:58:12.186Z,15.37
2019-02-15T20:00:45.516Z,16.47
2019-02-15T20:03:18.826Z,12.07
2019-02-15T20:05:52.129Z,11.43
2019-02-15T20:08:25.432Z,12.30
2019-02-15T20:10:58.795Z,13.30
2019-02-15T20:13:32.087Z,13.37
2019-02-15T20:16:05.461Z,14.03
2019-02-15T20:18:38.764Z,17.00
2019-02-15T20:21:12.065Z,19.20
2019-02-15T20:23:45.354Z,23.43
2019-02-15T20:26:18.690Z,17.33
2019-02-15T20:28:51.980Z,18.40
2019-02-15T20:31:25.323Z,20.33
2019-02-15T20:33:58.628Z,16.17
2019-02-15T20:39:13.527Z,13.40
2019-02-15T20:41:46.968Z,20.73
2019-02-15T20:44:20.227Z,18.77
2019-02-15T20:46:53.601Z,18.13
2019-02-15T20:49:26.920Z,15.67
2019-02-15T20:52:00.213Z,15.37
2019-02-15T20:54:33.495Z,14.90
2019-02-15T20:57:06.802Z,15.20
2019-02-15T20:59:40.396Z,16.97
2019-02-15T21:02:14.400Z,14.50
2019-02-15T21:04:49.435Z,14.40
2019-02-15T21:07:22.738Z,15.87
2019-02-15T21:09:56.102Z,17.87
2019-02-15T21:12:29.394Z,16.97
2019-02-15T21:15:02.696Z,21.43
2019-02-15T21:17:36.073Z,19.57
2019-02-15T21:20:11.322Z,21.97
2019-02-15T21:22:44.602Z,18.83
2019-02-15T21:25:18.191Z,18.87
2019-02-15T21:27:51.483Z,15.47
2019-02-15T21:30:24.800Z,24.67
2019-02-15T21:32:58.084Z,14.37
2019-02-15T21:35:31.405Z,13.83
2019-02-15T21:38:04.922Z,14.00
2019-02-15T21:40:38.252Z,13.47
2019-02-15T21:43:11.623Z,13.37
2019-02-15T21:45:47.752Z,12.87
2019-02-15T21:48:41.979Z,12.73
2019-02-15T21:51:15.376Z,12.07
2019-02-15T21:53:48.658Z,11.50
2019-02-15T21:56:22.049Z,9.83
2019-02-15T21:58:55.486Z,10.93
2019-02-15T22:01:28.874Z,10.23
2019-02-15T22:04:02.146Z,9.40
2019-02-15T22:06:35.458Z,10.00
2019-02-15T22:09:09.020Z,10.60
2019-02-15T22:11:42.826Z,10.30
2019-02-15T22:14:16.178Z,9.40
2019-02-15T22:16:49.508Z,10.40
2019-02-15T22:19:22.784Z,9.53
2019-02-15T22:21:56.086Z,10.93
2019-02-15T22:24:30.409Z,10.67
2019-02-15T22:27:03.744Z,10.67
2019-02-15T22:29:37.023Z,11.00
2019-02-15T22:32:10.348Z,12.83
2019-02-15T22:34:43.630Z,12.07
2019-02-15T22:37:16.957Z,11.33
2019-02-15T22:39:50.244Z,12.60
2019-02-15T22:42:23.565Z,11.47
2019-02-15T22:44:56.847Z,13.90
2019-02-15T22:47:30.140Z,12.53
2019-02-15T22:50:03.424Z,12.10
2019-02-15T22:52:36.713Z,11.10
2019-02-15T22:55:10.005Z,12.73
2019-02-15T22:57:43.305Z,11.37
2019-02-15T23:00:33.181Z,11.30
2019-02-15T23:03:06.495Z,12.07
2019-02-15T23:05:39.760Z,12.00
2019-02-15T23:08:13.073Z,11.40
2019-02-15T23:10:46.360Z,12.90
2019-02-15T23:13:19.784Z,13.60
2019-02-15T23:15:53.078Z,13.87
2019-02-15T23:18:26.440Z,13.37
2019-02-15T23:20:59.732Z,13.10
2019-02-15T23:23:33.028Z,14.30
2019-02-15T23:26:06.322Z,14.63
2019-02-15T23:28:40.839Z,14.97
2019-02-15T23:31:14.171Z,14.43
2019-02-15T23:33:47.477Z,13.83
2019-02-15T23:36:21.984Z,13.10
2019-02-15T23:38:55.292Z,12.93
2019-02-15T23:41:28.572Z,14.00
2019-02-15T23:44:01.879Z,12.60
2019-02-15T23:46:35.169Z,13.40
2019-02-15T23:49:08.468Z,12.67
2019-02-15T23:51:41.777Z,11.83
2019-02-15T23:54:15.095Z,11.93
2019-02-15T23:56:48.400Z,11.83
2019-02-15T23:59:21.715Z,11.83
